createdAt,value
2017-02-17T00:00:23.493Z,0
2017-02-17T00:01:33.417Z,0
2017-02-17T00:02:42.993Z,0
2017-02-17T00:03:52.588Z,0
2017-02-17T00:05:02.829Z,0
2017-02-17T00:06:12.775Z,0
2017-02-17T00:07:23.504Z,0
2017-02-17T00:08:33.055Z,0
2017-02-17T00:09:42.215Z,0
2017-02-17T00:10:53.180Z,0
2017-02-17T00:12:02.730Z,0
2017-02-17T00:13:12.675Z,0
2017-02-17T00:14:22.609Z,0
2017-02-17T00:15:33.343Z,0
2017-02-17T00:16:44.317Z,0
2017-02-17T00:17:54.670Z,0
2017-02-17T00:19:04.646Z,0
2017-02-17T00:20:15.361Z,0
2017-02-17T00:21:25.300Z,0
2017-02-17T00:22:34.699Z,0
2017-02-17T00:23:45.037Z,0
2017-02-17T00:24:55.750Z,0
2017-02-17T00:26:06.058Z,0
2017-02-17T00:27:15.618Z,0
2017-02-17T00:28:25.784Z,0
2017-02-17T00:29:35.710Z,0
2017-02-17T00:30:46.031Z,0
2017-02-17T00:31:56.341Z,0
2017-02-17T00:33:06.659Z,0
2017-02-17T00:34:16.838Z,0
2017-02-17T00:35:27.150Z,0
2017-02-17T00:36:37.460Z,0
2017-02-17T00:37:47.795Z,0
2017-02-17T00:38:56.936Z,0
2017-02-17T00:40:07.505Z,0
2017-02-17T00:41:17.039Z,0
2017-02-17T00:42:27.739Z,0
2017-02-17T00:43:38.061Z,0
2017-02-17T00:44:47.597Z,0
2017-02-17T00:45:57.441Z,0
2017-02-17T00:47:07.763Z,0
2017-02-17T00:48:18.493Z,0
2017-02-17T00:49:28.026Z,0
2017-02-17T00:50:37.545Z,0
2017-02-17T00:51:47.792Z,0
2017-02-17T00:52:58.512Z,0
2017-02-17T00:54:08.845Z,0
2017-02-17T00:55:19.169Z,0
2017-02-17T00:56:29.895Z,0
2017-02-17T00:57:40.467Z,0
2017-02-17T00:58:50.424Z,0
2017-02-17T00:59:59.969Z,0
2017-02-17T01:01:09.901Z,0
2017-02-17T01:02:20.227Z,0
2017-02-17T01:03:31.195Z,0
2017-02-17T01:04:41.923Z,0
2017-02-17T01:05:52.660Z,0
2017-02-17T01:07:02.586Z,0
2017-02-17T01:08:12.956Z,0
2017-02-17T01:09:23.612Z,0
2017-02-17T01:10:33.953Z,0
2017-02-17T01:11:43.879Z,0
2017-02-17T01:12:53.416Z,0
2017-02-17T01:14:03.341Z,0
2017-02-17T01:15:13.901Z,0
2017-02-17T01:16:23.848Z,0
2017-02-17T01:17:34.176Z,0
2017-02-17T01:18:44.899Z,0
2017-02-17T01:19:55.223Z,0
2017-02-17T01:21:05.450Z,0
2017-02-17T01:22:15.403Z,0
2017-02-17T01:23:25.744Z,0
2017-02-17T01:24:36.068Z,0
2017-02-17T01:25:45.590Z,0
2017-02-17T01:26:55.355Z,0
2017-02-17T01:28:05.134Z,0
2017-02-17T01:29:14.672Z,0
2017-02-17T01:30:24.590Z,0
2017-02-17T01:31:34.122Z,0
2017-02-17T01:32:43.934Z,0
2017-02-17T01:33:53.470Z,0
2017-02-17T01:35:03.512Z,0
2017-02-17T01:36:13.461Z,0
2017-02-17T01:37:23.396Z,0
2017-02-17T01:38:33.619Z,0
2017-02-17T01:39:43.562Z,0
2017-02-17T01:40:53.495Z,0
2017-02-17T01:42:04.221Z,0
2017-02-17T01:43:14.961Z,0
2017-02-17T01:44:25.201Z,0
2017-02-17T01:45:35.539Z,0
2017-02-17T01:46:45.072Z,0
2017-02-17T01:47:54.599Z,0
2017-02-17T01:49:04.524Z,0
2017-02-17T01:50:14.766Z,0
2017-02-17T01:51:25.120Z,0
2017-02-17T01:52:34.250Z,0
2017-02-17T01:53:44.563Z,0
2017-02-17T01:54:54.887Z,0
2017-02-17T01:56:05.073Z,0
2017-02-17T01:57:15.370Z,0
2017-02-17T01:58:25.290Z,0
2017-02-17T01:59:36.016Z,0
2017-02-17T02:00:45.552Z,0
2017-02-17T02:01:55.807Z,0
2017-02-17T02:03:05.369Z,0
2017-02-17T02:04:14.914Z,0
2017-02-17T02:05:24.045Z,0
2017-02-17T02:06:33.191Z,0
2017-02-17T02:07:44.224Z,0
2017-02-17T02:08:54.955Z,0
2017-02-17T02:10:05.669Z,0
2017-02-17T02:11:15.601Z,0
2017-02-17T02:12:25.523Z,0
2017-02-17T02:13:35.383Z,0
2017-02-17T02:14:45.697Z,0
2017-02-17T02:15:56.035Z,0
2017-02-17T02:17:06.400Z,0
2017-02-17T02:18:16.729Z,0
2017-02-17T02:19:26.926Z,0
2017-02-17T02:20:37.630Z,0
2017-02-17T02:21:47.558Z,0
2017-02-17T02:22:57.871Z,0
2017-02-17T02:24:08.203Z,0
2017-02-17T02:25:18.049Z,0
2017-02-17T02:26:27.958Z,0
2017-02-17T02:27:38.272Z,0
2017-02-17T02:28:48.598Z,0
2017-02-17T02:29:58.525Z,0
2017-02-17T02:31:08.384Z,0
2017-02-17T02:32:18.352Z,0
2017-02-17T02:33:27.885Z,0
2017-02-17T02:34:37.808Z,0
2017-02-17T02:35:48.047Z,0
2017-02-17T02:36:58.652Z,0
2017-02-17T02:38:09.354Z,0
2017-02-17T02:39:18.863Z,0
2017-02-17T02:40:29.607Z,0
2017-02-17T02:41:39.940Z,0
2017-02-17T02:42:49.758Z,0
2017-02-17T02:43:58.920Z,0
2017-02-17T02:45:08.872Z,0
2017-02-17T02:46:19.223Z,0
2017-02-17T02:47:29.555Z,0
2017-02-17T02:48:40.182Z,0
2017-02-17T02:49:50.101Z,0
2017-02-17T02:51:00.827Z,0
2017-02-17T02:52:10.755Z,0
2017-02-17T02:53:20.701Z,0
2017-02-17T02:54:30.929Z,0
2017-02-17T02:55:41.340Z,0
2017-02-17T02:56:52.057Z,0
2017-02-17T02:58:01.978Z,0
2017-02-17T02:59:12.287Z,0
2017-02-17T03:00:22.522Z,0
2017-02-17T03:01:32.466Z,0
2017-02-17T03:02:42.397Z,0
2017-02-17T03:03:51.933Z,0
2017-02-17T03:05:01.847Z,0
2017-02-17T03:06:12.490Z,0
2017-02-17T03:07:23.203Z,0
2017-02-17T03:08:33.115Z,0
2017-02-17T03:09:43.031Z,0
2017-02-17T03:10:53.367Z,0
2017-02-17T03:12:04.385Z,0
2017-02-17T03:13:13.942Z,0
2017-02-17T03:14:23.885Z,0
2017-02-17T03:15:33.437Z,0
2017-02-17T03:16:44.147Z,0
2017-02-17T03:17:54.367Z,0
2017-02-17T03:19:05.111Z,0
2017-02-17T03:20:14.656Z,0
2017-02-17T03:21:24.567Z,0
2017-02-17T03:22:35.288Z,0
2017-02-17T03:23:45.543Z,0
2017-02-17T03:24:56.283Z,0
2017-02-17T03:26:05.418Z,0
2017-02-17T03:27:15.360Z,0
2017-02-17T03:28:24.487Z,0
2017-02-17T03:29:35.064Z,0
2017-02-17T03:30:45.391Z,0
2017-02-17T03:31:54.948Z,0
2017-02-17T03:33:04.483Z,0
2017-02-17T03:34:13.734Z,0
2017-02-17T03:35:24.373Z,0
2017-02-17T03:36:34.692Z,0
2017-02-17T03:37:44.997Z,0
2017-02-17T03:38:55.316Z,0
2017-02-17T03:40:05.277Z,0
2017-02-17T03:41:15.894Z,0
2017-02-17T03:42:25.441Z,0
2017-02-17T03:43:35.376Z,0
2017-02-17T03:44:45.699Z,0
2017-02-17T03:45:55.641Z,0
2017-02-17T03:47:05.839Z,0
2017-02-17T03:48:15.768Z,0
2017-02-17T03:49:24.931Z,0
2017-02-17T03:50:35.252Z,0
2017-02-17T03:51:44.792Z,0
2017-02-17T03:52:54.960Z,0
2017-02-17T03:54:04.531Z,0
2017-02-17T03:55:14.049Z,0
2017-02-17T03:56:23.997Z,0
2017-02-17T03:57:34.342Z,0
2017-02-17T03:58:44.940Z,0
2017-02-17T03:59:55.247Z,0
2017-02-17T04:01:04.806Z,0
2017-02-17T04:02:15.513Z,0
2017-02-17T04:03:25.845Z,0
2017-02-17T04:04:36.454Z,0
2017-02-17T04:05:46.777Z,0
2017-02-17T04:06:57.113Z,0
2017-02-17T04:08:07.061Z,0
2017-02-17T04:09:16.589Z,0
2017-02-17T04:10:27.238Z,0
2017-02-17T04:11:36.822Z,0
2017-02-17T04:12:46.794Z,0
2017-02-17T04:13:56.713Z,0
2017-02-17T04:15:06.642Z,0
2017-02-17T04:16:16.424Z,0
2017-02-17T04:17:25.960Z,0
2017-02-17T04:18:35.909Z,0
2017-02-17T04:19:45.832Z,0
2017-02-17T04:20:55.753Z,0
2017-02-17T04:22:06.365Z,0
2017-02-17T04:23:16.677Z,0
2017-02-17T04:24:25.823Z,0
2017-02-17T04:25:35.766Z,0
2017-02-17T04:26:45.696Z,0
2017-02-17T04:27:55.895Z,0
2017-02-17T04:29:06.620Z,0
2017-02-17T04:30:16.961Z,0
2017-02-17T04:31:26.492Z,0
2017-02-17T04:32:36.412Z,0
2017-02-17T04:33:47.437Z,0
2017-02-17T04:34:57.747Z,0
2017-02-17T04:36:08.057Z,0
2017-02-17T04:37:17.605Z,0
2017-02-17T04:38:28.305Z,0
2017-02-17T04:39:38.490Z,0
2017-02-17T04:40:48.811Z,0
2017-02-17T04:41:59.515Z,0
2017-02-17T04:43:09.857Z,0
2017-02-17T04:44:20.162Z,0
2017-02-17T04:45:31.118Z,0
2017-02-17T04:46:41.046Z,0
2017-02-17T04:47:51.753Z,0
2017-02-17T04:49:01.688Z,0
2017-02-17T04:50:11.248Z,0
2017-02-17T04:51:21.495Z,0
2017-02-17T04:52:31.817Z,0
2017-02-17T04:53:42.141Z,0
2017-02-17T04:54:52.072Z,0
2017-02-17T04:56:01.617Z,0
2017-02-17T04:57:11.793Z,0
2017-02-17T04:58:21.758Z,0
2017-02-17T04:59:32.469Z,0
2017-02-17T05:00:42.390Z,0
2017-02-17T05:01:52.708Z,0
2017-02-17T05:03:03.342Z,0
2017-02-17T05:04:13.068Z,0
2017-02-17T05:05:23.391Z,0
2017-02-17T05:06:33.342Z,0
2017-02-17T05:07:43.276Z,0
2017-02-17T05:08:53.498Z,0
2017-02-17T05:10:03.824Z,0
2017-02-17T05:11:13.373Z,0
2017-02-17T05:12:22.906Z,0
2017-02-17T05:13:32.056Z,0
2017-02-17T05:14:42.612Z,0
2017-02-17T05:15:52.969Z,0
2017-02-17T05:17:02.917Z,0
2017-02-17T05:18:12.870Z,0
2017-02-17T05:19:23.590Z,0
2017-02-17T05:20:33.780Z,0
2017-02-17T05:21:43.706Z,0
2017-02-17T05:22:54.028Z,0
2017-02-17T05:24:03.971Z,0
2017-02-17T05:25:14.304Z,0
2017-02-17T05:26:25.296Z,0
2017-02-17T05:27:35.622Z,0
2017-02-17T05:28:45.152Z,0
2017-02-17T05:29:54.329Z,0
2017-02-17T05:31:04.272Z,0
2017-02-17T05:32:15.080Z,0
2017-02-17T05:33:25.004Z,0
2017-02-17T05:34:35.369Z,0
2017-02-17T05:35:44.938Z,0
2017-02-17T05:36:54.490Z,0
2017-02-17T05:38:05.109Z,0
2017-02-17T05:39:15.040Z,0
2017-02-17T05:40:25.356Z,0
2017-02-17T05:41:35.283Z,0
2017-02-17T05:42:45.599Z,0
2017-02-17T05:43:55.454Z,0
2017-02-17T05:45:05.001Z,0
2017-02-17T05:46:15.343Z,0
2017-02-17T05:47:25.282Z,0
2017-02-17T05:48:35.211Z,0
2017-02-17T05:49:45.456Z,0
2017-02-17T05:50:55.398Z,0
2017-02-17T05:52:05.354Z,0
2017-02-17T05:53:15.276Z,0
2017-02-17T05:54:25.619Z,0
2017-02-17T05:55:36.236Z,0
2017-02-17T05:56:46.171Z,0
2017-02-17T05:57:55.709Z,0
2017-02-17T05:59:05.265Z,0
2017-02-17T06:00:15.179Z,0
2017-02-17T06:01:25.833Z,0
2017-02-17T06:02:35.372Z,0
2017-02-17T06:03:45.299Z,0
2017-02-17T06:04:55.616Z,0
2017-02-17T06:06:05.960Z,0
2017-02-17T06:07:16.191Z,0
2017-02-17T06:08:26.140Z,0
2017-02-17T06:09:36.052Z,0
2017-02-17T06:10:46.389Z,0
2017-02-17T06:11:55.938Z,0
2017-02-17T06:13:05.792Z,0
2017-02-17T06:14:15.763Z,0
2017-02-17T06:15:26.081Z,0
2017-02-17T06:16:36.401Z,0
2017-02-17T06:17:46.975Z,0
2017-02-17T06:18:57.581Z,0
2017-02-17T06:20:07.901Z,0
2017-02-17T06:21:17.824Z,0
2017-02-17T06:22:28.166Z,0
2017-02-17T06:23:37.701Z,0
2017-02-17T06:24:47.871Z,5
2017-02-17T06:25:58.198Z,5
2017-02-17T06:27:08.918Z,5
2017-02-17T06:28:19.248Z,5
2017-02-17T06:29:29.622Z,5
2017-02-17T06:30:40.191Z,5
2017-02-17T06:31:50.137Z,5
2017-02-17T06:33:00.483Z,5
2017-02-17T06:34:10.410Z,10
2017-02-17T06:35:20.344Z,10
2017-02-17T06:36:31.086Z,10
2017-02-17T06:37:41.429Z,10
2017-02-17T06:38:51.759Z,10
2017-02-17T06:40:01.681Z,10
2017-02-17T06:41:11.999Z,15
2017-02-17T06:42:22.605Z,15
2017-02-17T06:43:32.157Z,15
2017-02-17T06:44:42.478Z,15
2017-02-17T06:45:52.828Z,15
2017-02-17T06:47:02.775Z,15
2017-02-17T06:48:13.444Z,15
2017-02-17T06:49:23.381Z,15
2017-02-17T06:50:33.722Z,15
2017-02-17T06:51:44.437Z,15
2017-02-17T06:52:54.783Z,20
2017-02-17T06:54:05.857Z,20
2017-02-17T06:55:15.782Z,20
2017-02-17T06:56:25.726Z,20
2017-02-17T06:57:35.269Z,25
2017-02-17T06:58:45.587Z,25
2017-02-17T06:59:56.214Z,25
2017-02-17T07:01:06.189Z,25
2017-02-17T07:02:16.545Z,25
2017-02-17T07:03:26.481Z,25
2017-02-17T07:04:36.446Z,25
2017-02-17T07:05:46.638Z,20
2017-02-17T07:06:56.570Z,20
2017-02-17T07:08:07.316Z,20
2017-02-17T07:09:18.033Z,20
2017-02-17T07:10:27.962Z,20
2017-02-17T07:11:38.546Z,25
2017-02-17T07:12:48.505Z,25
2017-02-17T07:13:58.871Z,30
2017-02-17T07:15:08.430Z,30
2017-02-17T07:16:18.742Z,35
2017-02-17T07:17:29.360Z,35
2017-02-17T07:18:38.895Z,35
2017-02-17T07:19:48.872Z,35
2017-02-17T07:20:58.831Z,35
2017-02-17T07:22:08.758Z,35
2017-02-17T07:23:19.775Z,35
2017-02-17T07:24:29.709Z,40
2017-02-17T07:25:40.450Z,35
2017-02-17T07:26:49.999Z,35
2017-02-17T07:28:00.320Z,40
2017-02-17T07:29:10.912Z,45
2017-02-17T07:30:21.242Z,45
2017-02-17T07:31:31.187Z,45
2017-02-17T07:32:41.537Z,50
2017-02-17T07:33:51.884Z,55
2017-02-17T07:35:01.682Z,50
2017-02-17T07:36:12.020Z,35
2017-02-17T07:37:22.331Z,35
2017-02-17T07:38:32.283Z,35
2017-02-17T07:39:42.666Z,25
2017-02-17T07:40:52.893Z,25
2017-02-17T07:42:02.882Z,30
2017-02-17T07:43:12.826Z,25
2017-02-17T07:44:23.155Z,20
2017-02-17T07:45:33.119Z,15
2017-02-17T07:46:43.755Z,15
2017-02-17T07:47:53.310Z,15
2017-02-17T07:49:03.631Z,15
2017-02-17T07:50:13.607Z,20
2017-02-17T07:51:23.942Z,25
2017-02-17T07:52:34.594Z,30
2017-02-17T07:53:44.536Z,30
2017-02-17T07:54:55.254Z,35
2017-02-17T07:56:05.569Z,35
2017-02-17T07:57:16.309Z,40
2017-02-17T07:58:26.887Z,40
2017-02-17T07:59:37.616Z,40
2017-02-17T08:00:47.971Z,40
2017-02-17T08:01:58.301Z,40
2017-02-17T08:03:09.029Z,40
2017-02-17T08:04:19.628Z,40
2017-02-17T08:05:29.174Z,40
2017-02-17T08:06:39.897Z,45
2017-02-17T08:07:50.614Z,40
2017-02-17T08:09:00.957Z,40
2017-02-17T08:10:11.616Z,40
2017-02-17T08:11:21.959Z,35
2017-02-17T08:12:32.304Z,35
2017-02-17T08:13:42.237Z,40
2017-02-17T08:14:52.945Z,45
2017-02-17T08:16:03.587Z,55
2017-02-17T08:17:13.130Z,50
2017-02-17T08:18:23.460Z,40
2017-02-17T08:19:33.787Z,35
2017-02-17T08:20:44.533Z,40
2017-02-17T08:21:55.197Z,45
2017-02-17T08:23:05.117Z,55
2017-02-17T08:24:15.485Z,60
2017-02-17T08:25:25.804Z,65
2017-02-17T08:26:36.565Z,60
2017-02-17T08:27:46.780Z,60
2017-02-17T08:28:56.759Z,55
2017-02-17T08:30:07.103Z,40
2017-02-17T08:31:17.082Z,40
2017-02-17T08:32:26.604Z,40
2017-02-17T08:33:37.163Z,40
2017-02-17T08:34:47.493Z,35
2017-02-17T08:35:57.052Z,50
2017-02-17T08:37:06.993Z,55
2017-02-17T08:38:16.205Z,55
2017-02-17T08:39:25.667Z,55
2017-02-17T08:40:35.590Z,60
2017-02-17T08:41:45.925Z,55
2017-02-17T08:42:56.262Z,50
2017-02-17T08:44:06.622Z,55
2017-02-17T08:45:17.447Z,50
2017-02-17T08:46:27.397Z,50
2017-02-17T08:47:37.928Z,40
2017-02-17T08:48:48.250Z,50
2017-02-17T08:49:57.805Z,50
2017-02-17T08:51:08.455Z,55
2017-02-17T08:52:18.771Z,55
2017-02-17T08:53:29.094Z,55
2017-02-17T08:54:39.034Z,55
2017-02-17T08:55:49.375Z,50
2017-02-17T08:56:59.590Z,55
2017-02-17T08:58:09.550Z,55
2017-02-17T08:59:19.493Z,45
2017-02-17T09:00:30.258Z,50
2017-02-17T09:01:41.047Z,60
2017-02-17T09:02:50.992Z,55
2017-02-17T09:04:01.734Z,55
2017-02-17T09:05:12.500Z,65
2017-02-17T09:06:22.865Z,70
2017-02-17T09:07:33.069Z,70
2017-02-17T09:08:43.449Z,65
2017-02-17T09:09:54.197Z,60
2017-02-17T09:11:04.552Z,65
2017-02-17T09:12:15.275Z,55
2017-02-17T09:13:25.914Z,55
2017-02-17T09:14:36.250Z,50
2017-02-17T09:15:47.030Z,45
2017-02-17T09:16:57.357Z,45
2017-02-17T09:18:07.324Z,50
2017-02-17T09:19:18.375Z,45
2017-02-17T09:20:28.694Z,40
2017-02-17T09:21:39.677Z,35
2017-02-17T09:22:49.986Z,45
2017-02-17T09:24:00.713Z,50
2017-02-17T09:25:10.957Z,60
2017-02-17T09:26:20.901Z,60
2017-02-17T09:27:31.245Z,65
2017-02-17T09:28:41.968Z,70
2017-02-17T09:29:51.533Z,80
2017-02-17T09:31:01.726Z,85
2017-02-17T09:32:11.672Z,80
2017-02-17T09:33:21.606Z,80
2017-02-17T09:34:31.964Z,80
2017-02-17T09:35:42.295Z,65
2017-02-17T09:36:53.268Z,55
2017-02-17T09:38:03.245Z,50
2017-02-17T09:39:14.000Z,50
2017-02-17T09:40:23.964Z,45
2017-02-17T09:41:33.908Z,45
2017-02-17T09:42:44.119Z,40
2017-02-17T09:43:54.444Z,45
2017-02-17T09:45:05.174Z,55
2017-02-17T09:46:15.502Z,65
2017-02-17T09:47:26.254Z,70
2017-02-17T09:48:36.524Z,75
2017-02-17T09:49:46.848Z,85
2017-02-17T09:50:56.776Z,105
2017-02-17T09:52:07.541Z,95
2017-02-17T09:53:17.896Z,100
2017-02-17T09:54:28.483Z,95
2017-02-17T09:55:39.226Z,80
2017-02-17T09:56:49.965Z,80
2017-02-17T09:58:00.290Z,75
2017-02-17T09:59:10.245Z,70
2017-02-17T10:00:20.496Z,70
2017-02-17T10:01:30.272Z,80
2017-02-17T10:02:41.014Z,80
2017-02-17T10:03:51.341Z,85
2017-02-17T10:05:02.068Z,75
2017-02-17T10:06:13.034Z,80
2017-02-17T10:07:23.392Z,85
2017-02-17T10:08:33.347Z,75
2017-02-17T10:09:43.706Z,80
2017-02-17T10:10:53.649Z,90
2017-02-17T10:12:04.650Z,90
2017-02-17T10:13:14.994Z,75
2017-02-17T10:14:25.336Z,70
2017-02-17T10:15:36.089Z,80
2017-02-17T10:16:47.101Z,80
2017-02-17T10:17:57.028Z,85
2017-02-17T10:19:07.389Z,80
2017-02-17T10:20:16.948Z,75
2017-02-17T10:21:26.867Z,75
2017-02-17T10:22:37.466Z,65
2017-02-17T10:23:47.820Z,70
2017-02-17T10:24:58.566Z,80
2017-02-17T10:26:08.898Z,70
2017-02-17T10:27:19.644Z,75
2017-02-17T10:28:29.823Z,75
2017-02-17T10:29:39.786Z,75
2017-02-17T10:30:50.134Z,60
2017-02-17T10:32:00.488Z,60
2017-02-17T10:33:11.228Z,60
2017-02-17T10:34:22.234Z,55
2017-02-17T10:35:32.965Z,55
2017-02-17T10:36:42.913Z,50
2017-02-17T10:37:53.898Z,40
2017-02-17T10:39:04.263Z,45
2017-02-17T10:40:14.876Z,50
2017-02-17T10:41:24.817Z,50
2017-02-17T10:42:34.756Z,60
2017-02-17T10:43:45.107Z,55
2017-02-17T10:44:55.459Z,60
2017-02-17T10:46:06.080Z,70
2017-02-17T10:47:16.406Z,70
2017-02-17T10:48:26.782Z,75
2017-02-17T10:49:37.127Z,80
2017-02-17T10:50:47.470Z,75
2017-02-17T10:51:58.534Z,70
2017-02-17T10:53:09.305Z,70
2017-02-17T10:54:19.550Z,65
2017-02-17T10:55:30.315Z,60
2017-02-17T10:56:39.878Z,50
2017-02-17T10:57:50.894Z,55
2017-02-17T10:59:01.246Z,50
2017-02-17T11:00:11.617Z,60
2017-02-17T11:01:21.597Z,55
2017-02-17T11:02:32.369Z,45
2017-02-17T11:03:43.009Z,50
2017-02-17T11:04:53.743Z,50
2017-02-17T11:06:03.687Z,45
2017-02-17T11:07:13.653Z,50
2017-02-17T11:08:24.022Z,55
2017-02-17T11:09:35.047Z,65
2017-02-17T11:10:45.401Z,70
2017-02-17T11:11:55.364Z,65
2017-02-17T11:13:05.337Z,70
2017-02-17T11:14:15.690Z,70
2017-02-17T11:15:25.162Z,60
2017-02-17T11:16:35.119Z,50
2017-02-17T11:17:45.893Z,45
2017-02-17T11:18:56.234Z,50
2017-02-17T11:20:07.007Z,45
2017-02-17T11:21:16.995Z,45
2017-02-17T11:22:26.543Z,40
2017-02-17T11:23:36.505Z,35
2017-02-17T11:24:47.241Z,35
2017-02-17T11:25:57.905Z,35
2017-02-17T11:27:08.554Z,40
2017-02-17T11:28:18.905Z,45
2017-02-17T11:29:29.682Z,50
2017-02-17T11:30:40.043Z,45
2017-02-17T11:31:50.288Z,40
2017-02-17T11:33:01.067Z,45
2017-02-17T11:34:11.075Z,50
2017-02-17T11:35:21.441Z,50
2017-02-17T11:36:31.019Z,45
2017-02-17T11:37:42.123Z,45
2017-02-17T11:38:52.877Z,45
2017-02-17T11:40:03.255Z,50
2017-02-17T11:41:14.035Z,50
2017-02-17T11:42:24.806Z,50
2017-02-17T11:43:35.481Z,35
2017-02-17T11:44:46.288Z,30
2017-02-17T11:45:56.668Z,30
2017-02-17T11:47:07.040Z,35
2017-02-17T11:48:17.040Z,35
2017-02-17T11:49:27.721Z,40
2017-02-17T11:50:37.299Z,45
2017-02-17T11:51:47.695Z,45
2017-02-17T11:52:58.064Z,40
2017-02-17T11:54:08.434Z,35
2017-02-17T11:55:19.527Z,30
2017-02-17T11:56:29.901Z,45
2017-02-17T11:57:39.488Z,40
2017-02-17T11:58:49.907Z,35
2017-02-17T12:00:00.691Z,35
2017-02-17T12:01:10.701Z,35
2017-02-17T12:02:21.065Z,35
2017-02-17T12:03:31.411Z,30
2017-02-17T12:04:41.772Z,30
2017-02-17T12:05:52.150Z,30
2017-02-17T12:07:03.190Z,25
2017-02-17T12:08:13.578Z,25
2017-02-17T12:09:23.945Z,35
2017-02-17T12:10:33.939Z,30
2017-02-17T12:11:44.341Z,45
2017-02-17T12:12:55.471Z,25
2017-02-17T12:14:05.849Z,30
2017-02-17T12:15:16.653Z,40
2017-02-17T12:16:27.034Z,45
2017-02-17T12:17:37.414Z,45
2017-02-17T12:18:48.553Z,45
2017-02-17T12:19:59.331Z,45
2017-02-17T12:21:10.097Z,45
2017-02-17T12:22:20.063Z,40
2017-02-17T12:23:30.419Z,45
2017-02-17T12:24:41.150Z,40
2017-02-17T12:25:51.536Z,35
2017-02-17T12:27:01.929Z,30
2017-02-17T12:28:12.338Z,25
2017-02-17T12:29:23.190Z,25
2017-02-17T12:30:34.291Z,25
2017-02-17T12:31:45.111Z,20
2017-02-17T12:32:55.875Z,30
2017-02-17T12:34:06.250Z,40
2017-02-17T12:35:16.651Z,55
2017-02-17T12:36:27.734Z,55
2017-02-17T12:37:38.496Z,30
2017-02-17T12:38:49.286Z,50
2017-02-17T12:39:59.625Z,45
2017-02-17T12:41:10.407Z,40
2017-02-17T12:42:21.471Z,50
2017-02-17T12:43:32.243Z,45
2017-02-17T12:44:42.454Z,40
2017-02-17T12:45:52.432Z,35
2017-02-17T12:47:02.432Z,40
2017-02-17T12:48:12.806Z,35
2017-02-17T12:49:23.568Z,40
2017-02-17T12:50:34.387Z,40
2017-02-17T12:51:45.161Z,35
2017-02-17T12:52:55.923Z,35
2017-02-17T12:54:06.163Z,30
2017-02-17T12:55:16.953Z,30
2017-02-17T12:56:26.979Z,25
2017-02-17T12:57:37.371Z,30
2017-02-17T12:58:48.167Z,30
2017-02-17T12:59:58.846Z,35
2017-02-17T13:01:09.604Z,35
2017-02-17T13:02:19.565Z,40
2017-02-17T13:03:29.938Z,40
2017-02-17T13:04:40.314Z,45
2017-02-17T13:05:51.347Z,50
2017-02-17T13:07:00.947Z,55
2017-02-17T13:08:11.725Z,60
2017-02-17T13:09:22.093Z,55
2017-02-17T13:10:32.854Z,60
2017-02-17T13:11:43.871Z,60
2017-02-17T13:12:54.653Z,60
2017-02-17T13:14:05.023Z,60
2017-02-17T13:15:15.382Z,55
2017-02-17T13:16:25.783Z,55
2017-02-17T13:17:36.067Z,50
2017-02-17T13:18:46.089Z,45
2017-02-17T13:19:56.885Z,40
2017-02-17T13:21:06.849Z,40
2017-02-17T13:22:17.633Z,35
2017-02-17T13:23:28.736Z,25
2017-02-17T13:24:39.121Z,20
2017-02-17T13:25:49.480Z,20
2017-02-17T13:26:59.877Z,20
2017-02-17T13:28:09.880Z,25
2017-02-17T13:29:19.904Z,30
2017-02-17T13:30:30.256Z,25
2017-02-17T13:31:40.241Z,20
2017-02-17T13:32:51.024Z,15
2017-02-17T13:34:01.722Z,15
2017-02-17T13:35:12.257Z,15
2017-02-17T13:36:23.018Z,15
2017-02-17T13:37:32.979Z,15
2017-02-17T13:38:43.757Z,15
2017-02-17T13:39:54.979Z,15
2017-02-17T13:41:05.372Z,20
2017-02-17T13:42:16.141Z,15
2017-02-17T13:43:26.912Z,15
2017-02-17T13:44:37.690Z,20
2017-02-17T13:45:48.748Z,20
2017-02-17T13:46:59.133Z,25
2017-02-17T13:48:09.113Z,35
2017-02-17T13:49:19.514Z,35
2017-02-17T13:50:29.914Z,35
2017-02-17T13:51:40.597Z,35
2017-02-17T13:52:51.002Z,35
2017-02-17T13:54:01.783Z,40
2017-02-17T13:55:12.620Z,55
2017-02-17T13:56:22.989Z,65
2017-02-17T13:57:34.087Z,70
2017-02-17T13:58:44.445Z,60
2017-02-17T13:59:53.994Z,50
2017-02-17T14:01:03.938Z,45
2017-02-17T14:02:13.121Z,50
2017-02-17T14:03:24.196Z,55
2017-02-17T14:04:34.532Z,45
2017-02-17T14:05:44.894Z,40
2017-02-17T14:06:54.823Z,45
2017-02-17T14:08:05.568Z,50
2017-02-17T14:09:15.830Z,50
2017-02-17T14:10:26.165Z,45
2017-02-17T14:11:36.536Z,45
2017-02-17T14:12:46.880Z,30
2017-02-17T14:13:56.816Z,35
2017-02-17T14:15:07.018Z,35
2017-02-17T14:16:16.992Z,35
2017-02-17T14:17:27.761Z,35
2017-02-17T14:18:38.118Z,35
2017-02-17T14:19:48.877Z,40
2017-02-17T14:20:59.907Z,45
2017-02-17T14:22:10.252Z,25
2017-02-17T14:23:21.000Z,25
2017-02-17T14:24:31.737Z,25
2017-02-17T14:25:42.095Z,15
2017-02-17T14:26:57.252Z,20
2017-02-17T14:28:07.201Z,25
2017-02-17T14:29:17.950Z,25
2017-02-17T14:30:28.362Z,30
2017-02-17T14:31:38.736Z,20
2017-02-17T14:32:48.990Z,15
2017-02-17T14:33:59.738Z,20
2017-02-17T14:35:09.715Z,20
2017-02-17T14:36:20.057Z,20
2017-02-17T14:37:30.858Z,20
2017-02-17T14:38:41.530Z,20
2017-02-17T14:39:51.895Z,20
2017-02-17T14:41:01.839Z,15
2017-02-17T14:42:11.392Z,15
2017-02-17T14:43:22.131Z,20
2017-02-17T14:44:32.782Z,25
2017-02-17T14:45:42.743Z,20
2017-02-17T14:46:52.681Z,20
2017-02-17T14:48:03.459Z,25
2017-02-17T14:49:14.156Z,25
2017-02-17T14:50:25.239Z,30
2017-02-17T14:51:36.001Z,45
2017-02-17T14:52:46.759Z,40
2017-02-17T14:53:57.498Z,30
2017-02-17T14:55:08.259Z,30
2017-02-17T14:56:18.884Z,25
2017-02-17T14:57:29.742Z,25
2017-02-17T14:58:40.128Z,15
2017-02-17T14:59:50.483Z,15
2017-02-17T15:01:00.830Z,25
2017-02-17T15:02:11.878Z,15
2017-02-17T15:03:22.669Z,15
2017-02-17T15:04:32.611Z,20
2017-02-17T15:05:42.964Z,15
2017-02-17T15:06:52.916Z,15
2017-02-17T15:08:03.934Z,15
2017-02-17T15:09:14.344Z,10
2017-02-17T15:10:24.348Z,10
2017-02-17T15:11:35.188Z,5
2017-02-17T15:12:45.159Z,5
2017-02-17T15:13:55.867Z,10
2017-02-17T15:15:05.856Z,10
2017-02-17T15:16:16.613Z,10
2017-02-17T15:17:26.977Z,10
2017-02-17T15:18:36.915Z,5
2017-02-17T15:19:47.162Z,5
2017-02-17T15:20:57.902Z,5
2017-02-17T15:22:08.670Z,5
2017-02-17T15:23:18.214Z,5
2017-02-17T15:24:28.571Z,5
2017-02-17T15:25:39.603Z,5
2017-02-17T15:26:50.003Z,5
2017-02-17T15:27:59.559Z,5
2017-02-17T15:29:09.918Z,5
2017-02-17T15:30:19.866Z,5
2017-02-17T15:31:29.661Z,5
2017-02-17T15:32:40.053Z,5
2017-02-17T15:33:50.434Z,5
2017-02-17T15:35:01.223Z,5
2017-02-17T15:36:11.982Z,0
2017-02-17T15:37:23.113Z,0
2017-02-17T15:38:33.460Z,0
2017-02-17T15:39:43.840Z,0
2017-02-17T15:40:54.594Z,0
2017-02-17T15:42:05.371Z,0
2017-02-17T15:43:16.075Z,0
2017-02-17T15:44:26.840Z,0
2017-02-17T15:45:37.214Z,0
2017-02-17T15:46:47.608Z,0
2017-02-17T15:47:57.956Z,0
2017-02-17T15:49:08.579Z,0
2017-02-17T15:50:18.971Z,0
2017-02-17T15:51:29.749Z,0
2017-02-17T15:52:39.742Z,0
2017-02-17T15:53:49.703Z,0
2017-02-17T15:55:00.346Z,0
2017-02-17T15:56:11.119Z,0
2017-02-17T15:57:21.470Z,0
2017-02-17T15:58:31.821Z,0
2017-02-17T15:59:41.786Z,0
2017-02-17T16:00:52.448Z,0
2017-02-17T16:02:02.401Z,0
2017-02-17T16:03:13.153Z,0
2017-02-17T16:04:23.925Z,0
2017-02-17T16:05:34.327Z,0
2017-02-17T16:06:44.597Z,0
2017-02-17T16:07:55.374Z,0
2017-02-17T16:09:05.722Z,0
2017-02-17T16:10:16.091Z,0
2017-02-17T16:11:26.750Z,0
2017-02-17T16:12:37.754Z,0
2017-02-17T16:13:48.129Z,0
2017-02-17T16:14:58.495Z,0
2017-02-17T16:16:08.843Z,0
2017-02-17T16:17:18.811Z,0
2017-02-17T16:18:29.910Z,0
2017-02-17T16:19:40.780Z,0
2017-02-17T16:20:51.554Z,0
2017-02-17T16:22:02.303Z,0
2017-02-17T16:23:12.700Z,0
2017-02-17T16:24:23.305Z,0
2017-02-17T16:25:32.873Z,0
2017-02-17T16:26:43.253Z,0
2017-02-17T16:27:53.625Z,0
2017-02-17T16:29:03.979Z,0
2017-02-17T16:30:14.616Z,0
2017-02-17T16:31:24.606Z,0
2017-02-17T16:32:34.971Z,0
2017-02-17T16:33:45.353Z,0
2017-02-17T16:34:56.112Z,0
2017-02-17T16:36:07.327Z,0
2017-02-17T16:37:17.687Z,0
2017-02-17T16:38:27.652Z,0
2017-02-17T16:39:37.998Z,0
2017-02-17T16:40:48.768Z,0
2017-02-17T16:41:59.765Z,0
2017-02-17T16:43:10.571Z,0
2017-02-17T16:44:21.344Z,0
2017-02-17T16:45:32.112Z,0
2017-02-17T16:46:42.466Z,0
2017-02-17T16:47:52.707Z,0
2017-02-17T16:49:03.114Z,0
2017-02-17T16:50:13.478Z,0
2017-02-17T16:51:23.840Z,0
2017-02-17T16:52:34.233Z,0
2017-02-17T16:53:44.894Z,0
2017-02-17T16:54:55.247Z,0
2017-02-17T16:56:05.604Z,0
2017-02-17T16:57:15.980Z,0
2017-02-17T16:58:26.341Z,0
2017-02-17T16:59:37.362Z,0